Time;durP1;ratioP1;P1;durP2;ratioP2;P2;SDS_P1;SDS_P2;PMS_P1;PMS_P2;Temp;Humidity;BMP_temperature;BMP_pressure;BME280_temperature;BME280_humidity;BME280_pressure;Samples;Min_cycle;Max_cycle;Signal;HPM_P1;HPM_P2
2021/10/11 00:00:06;;;;;;;14.20;8.48;;;6.70;99.90;;;;;;5071394;28;20139;-78
2021/10/11 00:02:33;;;;;;;11.07;7.43;;;6.70;99.80;;;;;;5071152;28;20468;-78
2021/10/11 00:05:00;;;;;;;12.95;8.07;;;6.70;99.80;;;;;;5071267;28;20131;-78
2021/10/11 00:07:27;;;;;;;12.57;7.80;;;6.70;99.80;;;;;;5071006;28;20068;-80
2021/10/11 00:09:56;;;;;;;11.60;7.50;;;6.60;99.90;;;;;;5071407;28;20123;-76
2021/10/11 00:12:24;;;;;;;13.73;8.15;;;6.60;99.90;;;;;;5071855;28;20146;-76
2021/10/11 00:14:51;;;;;;;12.98;7.55;;;6.60;99.90;;;;;;5074776;28;20044;-80
2021/10/11 00:17:19;;;;;;;12.32;7.90;;;6.60;99.90;;;;;;5074663;28;20131;-78
2021/10/11 00:19:50;;;;;;;11.43;7.53;;;6.60;99.90;;;;;;5074467;28;20581;-78
2021/10/11 00:22:17;;;;;;;10.52;7.20;;;6.60;99.90;;;;;;5074501;28;20052;-78
2021/10/11 00:24:44;;;;;;;11.85;7.93;;;6.60;99.90;;;;;;5074426;28;20143;-78
2021/10/11 00:27:13;;;;;;;13.15;8.60;;;6.60;99.90;;;;;;5074696;28;20140;-77
2021/10/11 00:29:41;;;;;;;14.23;8.05;;;6.60;99.90;;;;;;5074398;28;20051;-77
2021/10/11 00:32:08;;;;;;;15.10;8.07;;;6.60;99.90;;;;;;5074550;28;20147;-77
2021/10/11 00:34:36;;;;;;;13.73;7.70;;;6.60;99.90;;;;;;5074550;28;20052;-76
2021/10/11 00:37:03;;;;;;;12.57;7.53;;;6.60;99.90;;;;;;5074423;28;20492;-78
2021/10/11 00:39:31;;;;;;;12.70;7.60;;;6.60;99.90;;;;;;5074123;28;20127;-77
2021/10/11 00:41:58;;;;;;;13.27;7.85;;;6.60;99.90;;;;;;5074121;28;20131;-79
2021/10/11 00:44:26;;;;;;;15.13;8.60;;;6.60;99.90;;;;;;5074297;28;20133;-78
2021/10/11 00:46:53;;;;;;;14.07;8.98;;;6.60;99.60;;;;;;5074106;28;20148;-80
2021/10/11 00:49:21;;;;;;;13.68;7.70;;;6.50;99.50;;;;;;5073912;28;20150;-78
2021/10/11 00:51:48;;;;;;;14.27;8.10;;;6.30;99.70;;;;;;5074146;28;20139;-77
2021/10/11 00:54:15;;;;;;;11.52;7.28;;;6.20;99.70;;;;;;5074156;28;20246;-76
2021/10/11 00:56:43;;;;;;;12.23;7.45;;;6.20;99.70;;;;;;5073828;28;20569;-76
2021/10/11 00:59:10;;;;;;;12.43;7.40;;;6.10;99.90;;;;;;5073686;28;20487;-79
2021/10/11 01:01:38;;;;;;;13.93;7.55;;;6.00;99.90;;;;;;5073830;28;20140;-78
2021/10/11 01:04:06;;;;;;;10.63;7.05;;;6.00;99.90;;;;;;5073713;28;20139;-78
2021/10/11 01:06:35;;;;;;;13.35;7.78;;;6.00;99.90;;;;;;5073824;28;20044;-78
2021/10/11 01:09:02;;;;;;;13.63;8.00;;;6.10;99.90;;;;;;5084699;28;20139;-78
2021/10/11 01:11:29;;;;;;;12.48;7.65;;;6.10;99.90;;;;;;5091570;28;20048;-78
2021/10/11 01:13:56;;;;;;;14.23;7.70;;;6.10;99.90;;;;;;5091049;28;20131;-77
2021/10/11 01:16:23;;;;;;;14.02;7.53;;;6.00;99.90;;;;;;5090886;28;20523;-78
2021/10/11 01:18:52;;;;;;;12.23;7.28;;;6.00;99.90;;;;;;5091245;28;20135;-77
2021/10/11 01:21:20;;;;;;;13.38;8.05;;;6.00;99.90;;;;;;5090910;28;20131;-80
2021/10/11 01:23:48;;;;;;;12.63;7.97;;;6.00;99.90;;;;;;5091078;28;20051;-77
2021/10/11 01:26:15;;;;;;;12.50;7.22;;;5.90;99.90;;;;;;5091188;28;20135;-76
2021/10/11 01:28:42;;;;;;;13.50;7.55;;;5.90;99.90;;;;;;5089989;28;20489;-76
2021/10/11 01:31:09;;;;;;;12.48;7.35;;;5.90;99.90;;;;;;5090876;28;20123;-77
2021/10/11 01:33:37;;;;;;;11.98;6.95;;;5.90;99.90;;;;;;5090931;28;20131;-77
2021/10/11 01:36:04;;;;;;;11.57;7.05;;;5.90;99.90;;;;;;5090629;28;20048;-79
2021/10/11 01:38:33;;;;;;;12.68;7.50;;;5.90;99.90;;;;;;5090921;28;20052;-77
2021/10/11 01:41:00;;;;;;;13.23;7.20;;;5.90;99.90;;;;;;5090542;28;20683;-78
2021/10/11 01:43:27;;;;;;;12.60;7.47;;;5.90;99.90;;;;;;5090679;28;20040;-76
2021/10/11 01:45:54;;;;;;;11.73;6.88;;;5.90;99.90;;;;;;5090653;28;20138;-77
2021/10/11 01:48:21;;;;;;;13.75;8.10;;;5.90;99.90;;;;;;5090110;28;20146;-77
2021/10/11 01:50:48;;;;;;;14.43;8.63;;;5.90;99.90;;;;;;5090246;28;20584;-76
2021/10/11 01:53:15;;;;;;;12.77;7.40;;;5.90;99.90;;;;;;5090501;28;20048;-77
2021/10/11 01:55:44;;;;;;;12.15;7.25;;;5.80;99.90;;;;;;5090605;28;20123;-78
2021/10/11 01:58:11;;;;;;;14.23;8.00;;;5.90;99.90;;;;;;5090193;28;20123;-77
2021/10/11 02:00:38;;;;;;;12.35;7.40;;;5.80;99.90;;;;;;5090422;28;20136;-80
2021/10/11 02:03:07;;;;;;;11.10;7.47;;;5.80;99.90;;;;;;5092978;28;20131;-81
2021/10/11 02:05:34;;;;;;;13.52;7.93;;;5.70;99.90;;;;;;5092878;28;20056;-79
2021/10/11 02:08:01;;;;;;;11.88;7.63;;;5.70;99.80;;;;;;5092829;28;20131;-79
2021/10/11 02:10:28;;;;;;;13.80;8.35;;;5.60;99.90;;;;;;5092527;28;20076;-80
2021/10/11 02:12:57;;;;;;;14.48;8.70;;;5.60;99.90;;;;;;5092916;28;20127;-80
2021/10/11 02:15:25;;;;;;;12.63;7.75;;;5.50;99.90;;;;;;5092527;28;20138;-79
2021/10/11 02:17:52;;;;;;;14.30;8.18;;;5.50;99.90;;;;;;5092659;28;20127;-78
2021/10/11 02:20:19;;;;;;;15.85;9.20;;;5.50;99.90;;;;;;5092584;28;20135;-79
2021/10/11 02:22:46;;;;;;;16.05;9.27;;;5.50;99.90;;;;;;5092445;28;20461;-77
2021/10/11 02:25:13;;;;;;;15.40;8.70;;;5.40;99.90;;;;;;5092367;28;20127;-79
2021/10/11 02:27:41;;;;;;;13.07;8.02;;;5.40;99.90;;;;;;5092543;28;20048;-77
2021/10/11 02:30:12;;;;;;;12.82;8.10;;;5.30;99.90;;;;;;5092534;28;20128;-78
2021/10/11 02:32:41;;;;;;;12.60;7.78;;;5.40;99.90;;;;;;5092318;28;20146;-78
2021/10/11 02:35:09;;;;;;;15.43;8.40;;;5.40;99.90;;;;;;5091903;28;20047;-76
2021/10/11 02:37:37;;;;;;;13.32;7.80;;;5.40;99.90;;;;;;5092212;28;20471;-78
2021/10/11 02:40:06;;;;;;;14.23;8.07;;;5.50;99.90;;;;;;5092225;28;20143;-79
2021/10/11 02:42:33;;;;;;;14.63;8.02;;;5.40;99.90;;;;;;5092216;28;20483;-78
2021/10/11 02:45:00;;;;;;;12.73;7.88;;;5.50;99.90;;;;;;5092268;28;20132;-77
2021/10/11 02:47:28;;;;;;;12.55;8.10;;;5.40;99.90;;;;;;5091964;28;20585;-79
2021/10/11 02:49:55;;;;;;;12.60;7.82;;;5.50;99.90;;;;;;5092035;28;20131;-79
2021/10/11 02:52:23;;;;;;;12.10;7.47;;;5.50;99.90;;;;;;5090881;28;20560;-77
2021/10/11 02:54:50;;;;;;;14.93;8.43;;;5.50;99.90;;;;;;5092243;28;20150;-79
2021/10/11 02:57:17;;;;;;;17.00;8.23;;;5.50;99.90;;;;;;5092250;28;20233;-78
2021/10/11 02:59:44;;;;;;;15.95;8.60;;;5.50;99.90;;;;;;5092019;28;20146;-78
2021/10/11 03:02:11;;;;;;;13.90;8.50;;;5.40;99.90;;;;;;5091177;28;20144;-79
2021/10/11 03:04:39;;;;;;;14.95;8.80;;;5.40;99.90;;;;;;5089938;28;20127;-79
2021/10/11 03:07:06;;;;;;;14.10;8.20;;;5.40;99.90;;;;;;5090174;28;20696;-79
2021/10/11 03:09:33;;;;;;;13.30;8.25;;;5.30;99.90;;;;;;5088773;28;20138;-78
2021/10/11 03:12:00;;;;;;;15.95;9.25;;;5.30;99.90;;;;;;5089393;28;20127;-79
2021/10/11 03:14:27;;;;;;;14.30;8.88;;;5.30;99.90;;;;;;5089047;28;20556;-78
2021/10/11 03:16:54;;;;;;;16.48;8.00;;;5.30;99.90;;;;;;5089240;28;20144;-78
2021/10/11 03:19:22;;;;;;;13.93;8.18;;;5.30;99.90;;;;;;5089083;28;20170;-78
2021/10/11 03:21:50;;;;;;;13.55;8.38;;;5.30;99.90;;;;;;5089065;28;20131;-79
2021/10/11 03:24:17;;;;;;;13.95;8.32;;;5.30;99.90;;;;;;5089365;28;20190;-77
2021/10/11 03:26:44;;;;;;;16.92;9.27;;;5.30;99.90;;;;;;5089059;28;20457;-77
2021/10/11 03:29:12;;;;;;;15.77;9.00;;;5.30;99.90;;;;;;5089135;28;20135;-78
2021/10/11 03:31:39;;;;;;;17.65;10.65;;;5.30;99.90;;;;;;5089062;28;20584;-78
2021/10/11 03:34:06;;;;;;;16.60;9.45;;;5.20;99.90;;;;;;5089058;28;20163;-74
2021/10/11 03:36:33;;;;;;;19.58;9.95;;;5.20;99.90;;;;;;5089337;28;20410;-75
2021/10/11 03:39:02;;;;;;;17.10;9.95;;;5.20;99.90;;;;;;5089104;28;20127;-76
2021/10/11 03:41:29;;;;;;;16.67;9.05;;;5.20;99.90;;;;;;5088987;28;20052;-75
2021/10/11 03:43:56;;;;;;;16.00;9.75;;;5.20;99.90;;;;;;5088954;28;20134;-78
2021/10/11 03:46:24;;;;;;;17.27;9.23;;;5.20;99.90;;;;;;5088709;28;20056;-76
2021/10/11 03:48:51;;;;;;;16.55;9.68;;;5.20;99.90;;;;;;5091892;28;20060;-80
2021/10/11 03:51:21;;;;;;;16.73;9.90;;;5.20;99.90;;;;;;5093236;28;20131;-78
2021/10/11 03:53:48;;;;;;;16.55;9.90;;;5.30;99.90;;;;;;5092753;28;20052;-77
2021/10/11 03:56:17;;;;;;;19.55;10.10;;;5.30;99.90;;;;;;5092940;28;20467;-78
2021/10/11 03:58:44;;;;;;;15.68;9.35;;;5.30;99.90;;;;;;5092600;28;20478;-80
2021/10/11 04:01:11;;;;;;;15.68;8.95;;;5.20;99.90;;;;;;5093270;28;20130;-79
2021/10/11 04:03:39;;;;;;;15.30;8.63;;;5.20;99.90;;;;;;5095137;28;20051;-77
2021/10/11 04:06:06;;;;;;;13.80;8.38;;;5.20;99.90;;;;;;5095075;28;20044;-77
2021/10/11 04:08:35;;;;;;;16.25;9.68;;;5.20;99.90;;;;;;5095022;28;20131;-77
2021/10/11 04:11:04;;;;;;;15.25;9.00;;;5.20;99.90;;;;;;5094990;28;20143;-78
2021/10/11 04:13:33;;;;;;;16.77;9.75;;;5.20;99.90;;;;;;5094811;28;20094;-79
2021/10/11 04:16:00;;;;;;;16.45;10.07;;;5.20;99.90;;;;;;5094975;28;20461;-78
2021/10/11 04:18:27;;;;;;;14.45;8.77;;;5.20;99.90;;;;;;5094937;28;20139;-80
2021/10/11 04:20:54;;;;;;;17.17;9.52;;;5.20;99.90;;;;;;5094760;28;20485;-80
2021/10/11 04:23:21;;;;;;;15.18;9.68;;;5.20;99.90;;;;;;5094909;28;20118;-76
2021/10/11 04:25:48;;;;;;;16.33;10.05;;;5.20;99.90;;;;;;5094792;28;20131;-77
2021/10/11 04:28:16;;;;;;;21.13;10.93;;;5.20;99.90;;;;;;5094701;28;20136;-79
2021/10/11 04:30:45;;;;;;;17.00;10.38;;;5.20;99.90;;;;;;5094584;28;20051;-76
2021/10/11 04:33:13;;;;;;;17.75;9.23;;;5.10;99.90;;;;;;5094625;28;20139;-77
2021/10/11 04:35:40;;;;;;;17.08;10.38;;;5.10;99.90;;;;;;5094980;28;20159;-79
2021/10/11 04:38:08;;;;;;;17.23;10.70;;;5.00;99.90;;;;;;5094886;28;20127;-78
2021/10/11 04:40:36;;;;;;;20.50;12.00;;;4.90;99.90;;;;;;5094843;28;20052;-76
2021/10/11 04:43:05;;;;;;;18.38;10.43;;;4.80;99.90;;;;;;5094616;28;20126;-77
2021/10/11 04:45:33;;;;;;;16.85;10.65;;;4.80;99.90;;;;;;5094665;28;20119;-77
2021/10/11 04:48:06;;;;;;;14.90;9.02;;;4.80;99.90;;;;;;5094329;28;20060;-77
2021/10/11 04:50:34;;;;;;;14.98;9.68;;;4.80;99.90;;;;;;5094633;28;20147;-79
2021/10/11 04:53:02;;;;;;;16.80;9.95;;;4.90;99.90;;;;;;5094882;28;20132;-77
2021/10/11 04:55:31;;;;;;;16.35;9.25;;;4.90;99.90;;;;;;5094598;28;20130;-79
2021/10/11 04:58:00;;;;;;;16.67;8.80;;;4.90;99.90;;;;;;5093846;28;20131;-77
2021/10/11 05:00:27;;;;;;;15.65;8.85;;;4.90;99.90;;;;;;5094104;28;20071;-80
2021/10/11 05:02:55;;;;;;;14.40;8.63;;;4.90;99.90;;;;;;5094360;28;20542;-78
2021/10/11 05:05:23;;;;;;;13.93;8.65;;;5.00;99.90;;;;;;5094594;28;20464;-78
2021/10/11 05:07:50;;;;;;;18.00;9.40;;;5.00;99.90;;;;;;5094131;28;20165;-77
2021/10/11 05:10:17;;;;;;;17.73;9.35;;;5.00;99.90;;;;;;5093669;28;20545;-79
2021/10/11 05:12:44;;;;;;;15.18;9.23;;;5.00;99.90;;;;;;5093945;28;20139;-77
2021/10/11 05:15:11;;;;;;;15.02;8.70;;;4.90;99.90;;;;;;5093749;28;20131;-78
2021/10/11 05:17:39;;;;;;;16.55;9.15;;;5.00;99.90;;;;;;5093792;28;20580;-77
2021/10/11 05:20:08;;;;;;;13.65;9.18;;;4.90;99.90;;;;;;5093458;28;20052;-77
2021/10/11 05:22:37;;;;;;;14.90;8.43;;;4.90;99.90;;;;;;5093770;28;20138;-78
2021/10/11 05:25:06;;;;;;;13.30;8.20;;;4.90;99.90;;;;;;5093569;28;20286;-80
2021/10/11 05:27:34;;;;;;;14.77;8.50;;;4.90;99.90;;;;;;5093529;28;20079;-77
2021/10/11 05:30:01;;;;;;;14.20;8.88;;;4.90;99.90;;;;;;5093279;28;20135;-80
2021/10/11 05:32:29;;;;;;;13.23;8.40;;;4.90;99.90;;;;;;5093236;28;20135;-81
2021/10/11 05:34:58;;;;;;;15.77;9.27;;;4.90;99.90;;;;;;5093544;28;20135;-79
2021/10/11 05:37:25;;;;;;;13.98;8.32;;;4.90;99.90;;;;;;5092979;28;20139;-81
2021/10/11 05:39:54;;;;;;;14.35;8.40;;;4.90;99.90;;;;;;5093352;28;20139;-78
2021/10/11 05:42:21;;;;;;;17.60;8.85;;;4.90;99.90;;;;;;5093346;28;20160;-79
2021/10/11 05:44:48;;;;;;;15.48;8.68;;;4.80;99.90;;;;;;5093269;28;20146;-78
2021/10/11 05:47:15;;;;;;;15.57;8.85;;;4.80;99.90;;;;;;5093027;28;20131;-79
2021/10/11 05:49:42;;;;;;;15.02;9.10;;;4.80;99.90;;;;;;5092754;28;20134;-80
2021/10/11 05:52:09;;;;;;;16.15;8.82;;;4.80;99.90;;;;;;5093161;28;20127;-79
2021/10/11 05:54:37;;;;;;;15.68;9.05;;;4.80;99.90;;;;;;5092981;28;20146;-78
2021/10/11 05:57:05;;;;;;;15.68;9.35;;;4.70;99.90;;;;;;5092790;28;20044;-78
2021/10/11 05:59:32;;;;;;;16.48;8.98;;;4.70;99.90;;;;;;5092778;28;20135;-77
2021/10/11 06:01:59;;;;;;;14.32;8.23;;;4.60;99.90;;;;;;5093140;28;20130;-78
2021/10/11 06:04:26;;;;;;;14.77;8.80;;;4.50;99.90;;;;;;5092942;28;20477;-77
2021/10/11 06:06:53;;;;;;;16.33;9.60;;;4.50;99.90;;;;;;5092851;28;20512;-79
2021/10/11 06:09:20;;;;;;;14.57;8.95;;;4.50;99.90;;;;;;5093252;28;20143;-80
2021/10/11 06:11:48;;;;;;;15.25;9.00;;;4.40;99.90;;;;;;5092078;28;20139;-78
2021/10/11 06:14:18;;;;;;;16.75;10.05;;;4.40;99.90;;;;;;5092452;28;20083;-76
2021/10/11 06:16:45;;;;;;;15.13;8.90;;;4.40;99.90;;;;;;5092839;28;20101;-80
2021/10/11 06:19:12;;;;;;;14.77;8.50;;;4.50;99.90;;;;;;5092520;28;20099;-78
2021/10/11 06:21:39;;;;;;;16.55;9.77;;;4.50;99.90;;;;;;5092537;28;20139;-79
2021/10/11 06:24:06;;;;;;;16.25;9.65;;;4.60;99.90;;;;;;5092392;28;20142;-79
2021/10/11 06:26:34;;;;;;;17.23;10.35;;;4.60;99.90;;;;;;5092414;28;20047;-79
2021/10/11 06:29:01;;;;;;;20.95;10.80;;;4.70;99.90;;;;;;5092355;28;20378;-78
2021/10/11 06:31:29;;;;;;;18.30;10.77;;;4.70;99.90;;;;;;5092235;28;20145;-79
2021/10/11 06:33:56;;;;;;;18.63;9.95;;;4.80;99.90;;;;;;5092259;28;20138;-80
2021/10/11 06:36:23;;;;;;;16.75;10.68;;;4.80;99.90;;;;;;5092213;28;20135;-80
2021/10/11 06:38:50;;;;;;;17.30;10.43;;;4.80;99.90;;;;;;5092345;28;20071;-81
2021/10/11 06:41:17;;;;;;;17.27;11.15;;;4.90;99.90;;;;;;5092029;28;20127;-81
2021/10/11 06:43:44;;;;;;;20.52;11.45;;;4.90;99.90;;;;;;5092386;28;20131;-77
2021/10/11 06:46:11;;;;;;;18.35;10.63;;;5.00;99.90;;;;;;5092165;28;20075;-77
2021/10/11 06:48:40;;;;;;;19.90;10.60;;;5.00;99.90;;;;;;5091910;28;20552;-79
2021/10/11 06:51:07;;;;;;;17.20;10.23;;;5.10;99.90;;;;;;5091956;28;20131;-80
2021/10/11 06:53:35;;;;;;;18.15;10.82;;;5.10;99.90;;;;;;5092060;28;20140;-78
2021/10/11 06:56:02;;;;;;;17.10;10.60;;;5.10;99.90;;;;;;5087674;28;20063;-78
2021/10/11 06:58:29;;;;;;;16.17;10.07;;;5.10;99.90;;;;;;5092120;28;20072;-78
2021/10/11 07:00:56;;;;;;;16.45;10.25;;;5.10;99.90;;;;;;5091803;28;20123;-76
2021/10/11 07:03:25;;;;;;;15.60;9.85;;;5.10;99.90;;;;;;5092046;28;20123;-80
2021/10/11 07:05:57;;;;;;;16.40;10.20;;;5.10;99.90;;;;;;5089875;28;20043;-78
2021/10/11 07:08:24;;;;;;;17.13;10.65;;;5.10;99.90;;;;;;5091734;28;20052;-78
2021/10/11 07:10:54;;;;;;;18.02;10.02;;;5.20;99.90;;;;;;5091911;28;20138;-78
2021/10/11 07:13:21;;;;;;;17.15;10.27;;;5.20;99.90;;;;;;5091821;28;20080;-79
2021/10/11 07:15:49;;;;;;;16.92;10.70;;;5.30;99.90;;;;;;5088252;28;20139;-79
2021/10/11 07:18:16;;;;;;;16.92;10.73;;;5.30;99.90;;;;;;5091226;28;20135;-79
2021/10/11 07:20:45;;;;;;;16.85;10.40;;;5.40;99.90;;;;;;5091509;28;20466;-78
2021/10/11 07:23:15;;;;;;;17.50;11.07;;;5.40;99.90;;;;;;5095796;28;20048;-78
2021/10/11 07:25:43;;;;;;;18.77;10.20;;;5.50;99.90;;;;;;5096005;28;20131;-80
2021/10/11 07:28:10;;;;;;;15.65;9.95;;;5.60;99.90;;;;;;5094167;28;20130;-79
2021/10/11 07:30:37;;;;;;;16.63;11.00;;;5.60;99.90;;;;;;5095515;28;20138;-78
2021/10/11 07:33:06;;;;;;;18.00;11.43;;;5.60;99.90;;;;;;5095472;28;20144;-76
2021/10/11 07:35:33;;;;;;;19.10;10.55;;;5.70;99.90;;;;;;5095520;28;20075;-78
2021/10/11 07:38:01;;;;;;;18.83;11.00;;;5.70;99.90;;;;;;5093816;28;20052;-77
2021/10/11 07:40:29;;;;;;;17.13;11.52;;;5.70;99.90;;;;;;5095633;28;20495;-78
2021/10/11 07:42:56;;;;;;;18.85;11.27;;;5.80;99.90;;;;;;5095372;28;20569;-80
2021/10/11 07:45:24;;;;;;;20.23;11.48;;;5.90;99.90;;;;;;5095566;28;20135;-79
2021/10/11 07:47:51;;;;;;;20.30;11.38;;;5.90;99.90;;;;;;5093462;28;20131;-80
2021/10/11 07:50:18;;;;;;;20.65;11.82;;;6.00;99.90;;;;;;5095579;28;20135;-79
2021/10/11 07:52:45;;;;;;;23.95;12.23;;;6.00;99.90;;;;;;5095431;28;20131;-79
2021/10/11 07:55:13;;;;;;;22.88;12.40;;;6.10;99.90;;;;;;5094867;28;20131;-80
2021/10/11 07:57:42;;;;;;;21.02;11.55;;;6.20;99.90;;;;;;5096285;28;20048;-78
2021/10/11 08:00:13;;;;;;;17.88;11.95;;;6.20;99.90;;;;;;5095292;28;20075;-78
2021/10/11 08:02:41;;;;;;;16.77;10.73;;;6.30;99.90;;;;;;5094969;28;20123;-80
2021/10/11 08:05:09;;;;;;;17.52;11.30;;;6.40;99.90;;;;;;5093344;28;20566;-78
2021/10/11 08:07:36;;;;;;;17.17;11.32;;;6.50;99.90;;;;;;5095195;28;20059;-78
2021/10/11 08:10:05;;;;;;;19.38;11.48;;;6.60;99.90;;;;;;5094803;28;20131;-78
2021/10/11 08:12:32;;;;;;;18.02;11.60;;;6.70;99.90;;;;;;5094913;28;20123;-80
2021/10/11 08:15:00;;;;;;;19.58;11.30;;;6.90;99.90;;;;;;5094378;28;20123;-81
2021/10/11 08:17:27;;;;;;;20.08;12.07;;;7.00;99.90;;;;;;5074446;28;20135;-79
2021/10/11 08:19:54;;;;;;;19.38;11.93;;;7.00;99.90;;;;;;5074677;28;20124;-79
2021/10/11 08:22:22;;;;;;;20.40;12.40;;;7.20;99.90;;;;;;5074466;28;20052;-80
2021/10/11 08:24:50;;;;;;;20.85;12.05;;;7.20;99.90;;;;;;5074349;28;20072;-80
2021/10/11 08:27:18;;;;;;;18.08;11.48;;;7.80;99.90;;;;;;5092074;28;20055;-80
2021/10/11 08:29:51;;;;;;;19.40;12.05;;;7.30;99.90;;;;;;5094565;28;20123;-78
2021/10/11 08:32:19;;;;;;;19.92;12.43;;;7.30;99.90;;;;;;5094677;28;20048;-79
2021/10/11 08:34:47;;;;;;;19.65;12.15;;;7.40;99.90;;;;;;5093618;28;20135;-80
2021/10/11 08:37:14;;;;;;;18.90;12.02;;;7.40;99.90;;;;;;5077991;28;20472;-80
2021/10/11 08:39:41;;;;;;;16.48;10.45;;;7.50;99.90;;;;;;5073661;28;20128;-79
2021/10/11 08:42:10;;;;;;;17.60;11.57;;;7.50;99.90;;;;;;5073946;28;20052;-79
2021/10/11 08:44:37;;;;;;;18.75;11.32;;;7.70;99.90;;;;;;5073885;28;20049;-78
2021/10/11 08:47:04;;;;;;;18.77;11.98;;;7.70;99.90;;;;;;5075238;28;20132;-79
2021/10/11 08:49:33;;;;;;;19.42;12.00;;;7.80;99.90;;;;;;5073824;28;20139;-78
2021/10/11 08:52:00;;;;;;;18.00;11.88;;;7.90;99.90;;;;;;5074358;28;20135;-81
2021/10/11 08:54:27;;;;;;;17.83;11.38;;;8.00;99.90;;;;;;5073764;28;20139;-81
2021/10/11 08:56:54;;;;;;;17.55;10.95;;;8.10;99.90;;;;;;5074668;28;20132;-79
2021/10/11 08:59:29;;;;;;;18.25;11.05;;;8.20;99.90;;;;;;5073718;28;20143;-79
2021/10/11 09:02:04;;;;;;;18.85;11.57;;;8.30;99.90;;;;;;5073647;28;20052;-80
2021/10/11 09:04:33;;;;;;;20.33;12.25;;;8.40;99.90;;;;;;5073681;28;20126;-79
2021/10/11 09:07:05;;;;;;;19.52;12.10;;;8.40;99.90;;;;;;5074571;28;20146;-81
2021/10/11 09:09:33;;;;;;;22.83;12.70;;;8.50;99.90;;;;;;5073698;28;20141;-79
2021/10/11 09:12:00;;;;;;;19.75;11.88;;;8.60;99.90;;;;;;5073656;28;20580;-79
2021/10/11 09:14:27;;;;;;;17.90;11.35;;;8.70;99.90;;;;;;5073615;28;20110;-80
2021/10/11 09:17:03;;;;;;;19.10;11.70;;;8.80;99.90;;;;;;5073344;28;20136;-78
2021/10/11 09:19:45;;;;;;;17.63;11.10;;;8.90;99.90;;;;;;5073513;28;20493;-79
2021/10/11 09:22:13;;;;;;;20.77;12.15;;;9.00;99.90;;;;;;5073551;28;20054;-79
2021/10/11 09:24:40;;;;;;;19.10;12.55;;;9.20;99.90;;;;;;5073406;28;20116;-81
2021/10/11 09:27:07;;;;;;;19.15;11.38;;;9.30;99.80;;;;;;5073396;28;20131;-78
2021/10/11 09:29:36;;;;;;;18.00;10.75;;;9.30;99.90;;;;;;5092821;28;20473;-78
2021/10/11 09:32:06;;;;;;;19.73;12.27;;;9.50;99.70;;;;;;5093280;28;20067;-80
2021/10/11 09:34:35;;;;;;;18.35;12.88;;;9.60;99.50;;;;;;5085537;28;20132;-79
2021/10/11 09:37:05;;;;;;;18.65;11.98;;;9.60;99.40;;;;;;5073259;28;20045;-78
2021/10/11 09:39:35;;;;;;;20.60;13.05;;;9.70;98.70;;;;;;5073119;28;20132;-78
2021/10/11 09:42:05;;;;;;;16.77;10.88;;;9.80;98.60;;;;;;5075691;28;20072;-77
2021/10/11 09:44:32;;;;;;;16.75;10.77;;;9.90;98.60;;;;;;5077190;28;20150;-77
2021/10/11 09:47:03;;;;;;;15.88;11.00;;;9.90;98.70;;;;;;5093377;28;20163;-78
2021/10/11 09:49:31;;;;;;;18.70;11.18;;;10.00;98.70;;;;;;5092952;28;20084;-81
2021/10/11 09:51:59;;;;;;;16.27;10.95;;;10.10;98.70;;;;;;5093050;28;20478;-79
2021/10/11 09:54:26;;;;;;;19.27;11.60;;;10.20;98.60;;;;;;5091094;28;20147;-79
2021/10/11 09:56:54;;;;;;;16.67;10.73;;;10.20;98.10;;;;;;5092693;28;20155;-78
2021/10/11 09:59:21;;;;;;;19.77;11.70;;;10.30;98.10;;;;;;5089960;28;20493;-77
2021/10/11 10:01:50;;;;;;;17.38;11.40;;;10.30;97.80;;;;;;5090316;28;20135;-77
2021/10/11 10:04:21;;;;;;;15.23;10.05;;;10.40;97.80;;;;;;5088883;28;20118;-78
2021/10/11 10:06:50;;;;;;;15.27;10.18;;;10.50;97.90;;;;;;5069688;28;20135;-79
2021/10/11 10:09:20;;;;;;;15.50;10.27;;;10.50;97.60;;;;;;5069585;28;20147;-78
2021/10/11 10:11:48;;;;;;;17.75;11.43;;;10.60;97.50;;;;;;5068919;28;20543;-79
2021/10/11 10:14:22;;;;;;;16.30;9.85;;;10.60;97.00;;;;;;5069083;28;20135;-78
2021/10/11 10:16:50;;;;;;;18.20;11.27;;;10.70;96.90;;;;;;5088832;28;20076;-78
2021/10/11 10:19:17;;;;;;;14.90;9.88;;;10.70;96.70;;;;;;5089831;28;20123;-77
2021/10/11 10:21:45;;;;;;;16.75;10.27;;;10.80;96.80;;;;;;5089486;28;20113;-77
2021/10/11 10:24:25;;;;;;;15.90;10.25;;;10.80;96.70;;;;;;5088766;28;20048;-78
2021/10/11 10:27:04;;;;;;;18.17;10.52;;;10.90;96.70;;;;;;5070420;28;20066;-81
2021/10/11 10:29:43;;;;;;;15.65;9.80;;;11.00;96.60;;;;;;5068927;28;20044;-79
2021/10/11 10:32:12;;;;;;;18.08;10.90;;;11.00;96.40;;;;;;5069126;28;20139;-79
2021/10/11 10:34:39;;;;;;;13.65;9.57;;;11.10;96.00;;;;;;5069090;28;20132;-78
2021/10/11 10:37:09;;;;;;;15.98;9.50;;;11.10;95.90;;;;;;5069015;28;20080;-80
2021/10/11 10:39:40;;;;;;;15.13;8.90;;;11.20;96.00;;;;;;5069280;28;20059;-80
2021/10/11 10:42:09;;;;;;;13.00;8.82;;;11.20;96.10;;;;;;5069189;28;20058;-78
2021/10/11 10:44:45;;;;;;;14.80;9.65;;;11.30;96.10;;;;;;5068865;28;20167;-81
2021/10/11 10:47:12;;;;;;;13.73;9.02;;;11.40;95.90;;;;;;5087540;28;20406;-78
2021/10/11 10:49:44;;;;;;;15.32;10.02;;;11.50;95.80;;;;;;5088508;28;20094;-79
2021/10/11 10:52:14;;;;;;;14.77;9.93;;;11.50;95.40;;;;;;5089290;28;20048;-81
2021/10/11 10:54:45;;;;;;;15.48;10.30;;;11.60;95.20;;;;;;5088900;28;20062;-81
2021/10/11 10:57:14;;;;;;;18.48;9.55;;;11.60;95.30;;;;;;5085185;28;20121;-77
2021/10/11 10:59:50;;;;;;;14.63;9.00;;;11.70;95.50;;;;;;5077228;28;20056;-78
2021/10/11 11:02:17;;;;;;;14.25;9.07;;;11.80;95.30;;;;;;5088977;28;20143;-79
2021/10/11 11:04:56;;;;;;;14.25;9.68;;;11.90;95.10;;;;;;5072070;28;20075;-80
2021/10/11 11:07:28;;;;;;;13.23;8.48;;;12.00;94.60;;;;;;5068926;28;20123;-80
2021/10/11 11:09:56;;;;;;;15.10;9.43;;;12.10;94.30;;;;;;5072056;28;20044;-78
2021/10/11 11:12:32;;;;;;;15.57;9.55;;;12.20;93.90;;;;;;5078309;28;20083;-78
2021/10/11 11:15:01;;;;;;;14.77;8.75;;;12.30;93.60;;;;;;5088980;28;20455;-80
2021/10/11 11:17:30;;;;;;;13.02;8.73;;;12.30;93.70;;;;;;5069175;28;20064;-81
2021/10/11 11:19:57;;;;;;;13.25;8.25;;;12.40;93.60;;;;;;5068566;28;20131;-80
2021/10/11 11:22:30;;;;;;;15.10;8.63;;;12.50;93.50;;;;;;5068509;28;20149;-81
2021/10/11 11:25:02;;;;;;;14.00;8.50;;;12.60;93.30;;;;;;5068682;28;20421;-79
2021/10/11 11:27:31;;;;;;;13.60;8.20;;;12.70;93.10;;;;;;5071993;28;20429;-79
2021/10/11 11:30:02;;;;;;;11.80;7.78;;;12.80;92.80;;;;;;5088487;28;20151;-80
2021/10/11 11:32:29;;;;;;;11.63;7.88;;;12.90;92.80;;;;;;5088730;28;20140;-78
2021/10/11 11:34:56;;;;;;;11.32;7.70;;;13.00;92.70;;;;;;5087421;28;20131;-80
2021/10/11 11:37:23;;;;;;;12.82;8.15;;;13.10;92.30;;;;;;5079765;28;20127;-79
2021/10/11 11:39:50;;;;;;;12.23;8.10;;;13.20;91.90;;;;;;5075992;28;20163;-79
2021/10/11 11:42:29;;;;;;;12.75;8.60;;;13.20;91.20;;;;;;5068341;28;20072;-79
2021/10/11 11:44:57;;;;;;;14.07;8.73;;;13.30;90.90;;;;;;5068264;28;20466;-78
2021/10/11 11:47:29;;;;;;;12.68;7.50;;;13.40;91.00;;;;;;5068344;28;20246;-76
2021/10/11 11:49:57;;;;;;;17.50;8.55;;;13.50;91.30;;;;;;5068416;28;20248;-77
2021/10/11 11:52:33;;;;;;;11.35;7.18;;;13.50;91.20;;;;;;5068255;28;20052;-80
2021/10/11 11:55:00;;;;;;;11.70;7.72;;;13.70;91.00;;;;;;5068882;28;20125;-79
2021/10/11 11:57:40;;;;;;;13.32;7.93;;;13.80;90.00;;;;;;5068080;28;20131;-79
2021/10/11 12:00:10;;;;;;;14.10;8.60;;;13.90;88.80;;;;;;5083532;28;20048;-79
2021/10/11 12:02:38;;;;;;;14.50;8.80;;;14.00;88.50;;;;;;5088613;28;20123;-80
2021/10/11 12:05:07;;;;;;;16.02;9.00;;;14.10;88.20;;;;;;5088627;28;20160;-79
2021/10/11 12:07:35;;;;;;;12.10;7.78;;;14.20;87.90;;;;;;5086623;28;20135;-78
2021/10/11 12:10:02;;;;;;;12.38;8.10;;;14.30;88.40;;;;;;5091465;28;20106;-78
2021/10/11 12:12:36;;;;;;;12.23;7.85;;;14.50;88.50;;;;;;5091843;28;20486;-78
2021/10/11 12:15:03;;;;;;;14.45;8.77;;;14.50;89.40;;;;;;5091803;28;20498;-80
2021/10/11 12:17:33;;;;;;;13.13;8.02;;;14.70;90.00;;;;;;5090381;28;20048;-79
2021/10/11 12:20:01;;;;;;;15.60;8.52;;;15.00;88.00;;;;;;5091519;28;20051;-80
2021/10/11 12:22:32;;;;;;;11.32;7.45;;;15.20;86.80;;;;;;5091555;28;20138;-79
2021/10/11 12:25:02;;;;;;;11.80;7.32;;;15.30;86.80;;;;;;5091502;28;20587;-79
2021/10/11 12:27:29;;;;;;;12.93;7.57;;;15.50;87.00;;;;;;5089791;28;20085;-79
2021/10/11 12:30:01;;;;;;;13.20;8.27;;;15.70;87.60;;;;;;5091855;28;20570;-80
2021/10/11 12:32:31;;;;;;;11.63;7.25;;;15.90;86.60;;;;;;5091483;28;20499;-80
2021/10/11 12:35:00;;;;;;;12.38;8.80;;;16.20;85.50;;;;;;5091499;28;20144;-80
2021/10/11 12:37:37;;;;;;;13.52;8.93;;;16.30;82.60;;;;;;5089545;28;20044;-80
2021/10/11 12:40:06;;;;;;;15.02;9.50;;;16.50;80.20;;;;;;5091339;28;20048;-80
2021/10/11 12:42:46;;;;;;;14.40;8.85;;;16.60;78.10;;;;;;5091597;28;20134;-79
2021/10/11 12:45:16;;;;;;;16.55;9.13;;;16.70;78.10;;;;;;5091549;28;20124;-80